Time;durP1;ratioP1;P1;durP2;ratioP2;P2;SDS_P1;SDS_P2;PMS_P1;PMS_P2;Temp;Humidity;BMP_temperature;BMP_pressure;BME280_temperature;BME280_humidity;BME280_pressure;Samples;Min_cycle;Max_cycle;Signal;HPM_P1;HPM_P2
2022/10/31 00:03:48;;;;;;;11.07;3.40;;;19.10;99.90;;;;;;7207063;80;26696;-58
2022/10/31 00:13:51;;;;;;;9.43;3.50;;;19.10;99.90;;;;;;7216544;80;26428;-60
2022/10/31 00:23:53;;;;;;;8.40;4.00;;;19.00;99.90;;;;;;7238895;80;26351;-60
2022/10/31 00:33:56;;;;;;;7.83;4.50;;;19.00;99.90;;;;;;7209457;80;26479;-57
2022/10/31 00:43:58;;;;;;;9.93;4.43;;;18.60;99.90;;;;;;7244323;80;26393;-59
2022/10/31 00:54:01;;;;;;;9.30;3.97;;;18.80;99.90;;;;;;7241125;81;26894;-60
2022/10/31 01:04:03;;;;;;;5.93;3.67;;;18.80;99.90;;;;;;7247926;80;26419;-59
2022/10/31 01:14:06;;;;;;;6.60;3.63;;;18.80;99.90;;;;;;7136893;82;27043;-60
2022/10/31 01:24:09;;;;;;;8.80;3.50;;;18.80;99.90;;;;;;7241870;80;26317;-59
2022/10/31 01:34:14;;;;;;;8.47;4.00;;;18.80;99.90;;;;;;7250966;80;27210;-59
2022/10/31 01:44:20;;;;;;;11.07;4.03;;;18.80;99.90;;;;;;7230691;80;26681;-57
2022/10/31 01:54:25;;;;;;;7.93;3.70;;;18.80;99.90;;;;;;7251892;80;26430;-59
2022/10/31 02:04:29;;;;;;;9.20;3.30;;;18.80;99.90;;;;;;7246544;80;26426;-60
2022/10/31 02:14:32;;;;;;;6.57;3.83;;;18.80;99.90;;;;;;7184243;80;26347;-60
2022/10/31 02:25:05;;;;;;;15.90;3.77;;;18.80;99.90;;;;;;7239077;80;26422;-62
2022/10/31 02:35:28;;;;;;;5.67;3.50;;;18.80;99.90;;;;;;7242320;80;26331;-63
2022/10/31 02:45:56;;;;;;;6.77;3.97;;;18.80;99.90;;;;;;7251978;81;26304;-60
2022/10/31 02:56:11;;;;;;;5.00;2.77;;;18.80;99.90;;;;;;7245182;80;26410;-59
2022/10/31 03:06:35;;;;;;;7.03;3.93;;;18.70;99.90;;;;;;7242791;80;26514;-59
2022/10/31 03:16:49;;;;;;;10.33;3.50;;;18.70;99.90;;;;;;7228341;80;26360;-59
2022/10/31 03:26:55;;;;;;;6.43;3.33;;;18.30;99.90;;;;;;7206907;80;26960;-59
2022/10/31 03:37:01;;;;;;;9.97;3.33;;;18.60;99.90;;;;;;7239334;80;26441;-58
2022/10/31 03:47:05;;;;;;;8.67;3.30;;;18.60;99.90;;;;;;7239926;80;26383;-61
2022/10/31 03:57:31;;;;;;;6.70;3.10;;;18.60;99.90;;;;;;7233205;80;26775;-60
2022/10/31 04:07:37;;;;;;;12.50;4.00;;;18.60;99.90;;;;;;7209707;80;26328;-60
2022/10/31 04:17:43;;;;;;;10.27;3.40;;;18.60;99.90;;;;;;7218268;80;26457;-60
2022/10/31 04:27:45;;;;;;;8.27;3.10;;;18.60;99.90;;;;;;7226513;80;26308;-59
2022/10/31 04:37:48;;;;;;;10.67;3.87;;;18.60;99.90;;;;;;7214418;80;26328;-61
2022/10/31 04:47:50;;;;;;;10.30;3.70;;;18.60;99.90;;;;;;7206907;80;26984;-60
2022/10/31 04:57:53;;;;;;;6.67;3.40;;;18.50;99.90;;;;;;7247958;80;26372;-60
2022/10/31 05:07:56;;;;;;;5.33;3.17;;;18.40;99.90;;;;;;7227521;80;26407;-60
2022/10/31 05:17:58;;;;;;;5.40;3.57;;;18.50;99.90;;;;;;7241724;80;26398;-60
2022/10/31 05:28:01;;;;;;;10.40;3.33;;;18.50;99.90;;;;;;7226231;80;26430;-61
2022/10/31 05:38:03;;;;;;;8.53;3.27;;;18.50;99.90;;;;;;7243443;81;26305;-59
2022/10/31 05:48:06;;;;;;;7.77;3.33;;;18.40;99.90;;;;;;7249641;80;26329;-60
2022/10/31 05:58:08;;;;;;;7.10;3.40;;;18.40;99.90;;;;;;7252415;80;26360;-60
2022/10/31 06:08:11;;;;;;;19.17;4.00;;;18.40;99.90;;;;;;7240451;80;26415;-62
2022/10/31 06:18:13;;;;;;;28.17;4.13;;;18.40;99.90;;;;;;7240913;81;26289;-60
2022/10/31 06:28:16;;;;;;;9.57;3.53;;;18.40;99.90;;;;;;7248835;80;26360;-63
2022/10/31 06:38:19;;;;;;;9.10;3.33;;;18.40;99.90;;;;;;7259604;80;26305;-61
2022/10/31 06:48:21;;;;;;;12.57;3.97;;;18.30;99.90;;;;;;7247344;80;26414;-62
2022/10/31 06:58:24;;;;;;;27.90;6.20;;;18.30;99.90;;;;;;7249877;80;26807;-60
2022/10/31 07:08:26;;;;;;;20.43;5.67;;;18.30;99.90;;;;;;7253018;80;27308;-63
2022/10/31 07:18:29;;;;;;;33.73;7.20;;;18.30;99.90;;;;;;7247707;80;26396;-58
2022/10/31 07:28:31;;;;;;;23.57;6.23;;;18.10;99.90;;;;;;7252767;80;26894;-59
2022/10/31 07:38:34;;;;;;;16.33;4.87;;;18.00;99.90;;;;;;7249055;80;26297;-60
2022/10/31 07:48:36;;;;;;;19.00;4.60;;;18.30;99.90;;;;;;7248249;81;26340;-60
2022/10/31 07:58:39;;;;;;;13.60;4.27;;;18.40;99.90;;;;;;7248818;80;26391;-59
2022/10/31 08:08:42;;;;;;;15.63;4.73;;;18.40;99.90;;;;;;7251471;80;26780;-62
2022/10/31 08:18:45;;;;;;;17.83;4.77;;;18.50;99.90;;;;;;7234321;80;26372;-61
2022/10/31 08:28:49;;;;;;;18.07;4.43;;;18.60;99.90;;;;;;7247155;80;26925;-62
2022/10/31 08:38:52;;;;;;;16.37;4.10;;;18.70;99.90;;;;;;7246436;80;26882;-59
2022/10/31 08:48:54;;;;;;;12.20;4.33;;;18.50;99.90;;;;;;7137641;82;26403;-59
2022/10/31 08:58:57;;;;;;;9.57;4.30;;;18.60;99.90;;;;;;7250798;80;26858;-60
2022/10/31 09:08:59;;;;;;;14.80;5.47;;;18.80;99.90;;;;;;7248817;80;26427;-59
2022/10/31 09:19:02;;;;;;;13.70;5.70;;;19.00;99.90;;;;;;7244275;80;26305;-61
2022/10/31 09:29:04;;;;;;;18.20;7.83;;;19.00;99.90;;;;;;7248761;80;26418;-60
2022/10/31 09:39:07;;;;;;;18.17;8.40;;;19.10;99.90;;;;;;7254284;80;26399;-60
2022/10/31 09:49:41;;;;;;;15.10;6.90;;;19.10;99.90;;;;;;7238852;80;26319;-62
2022/10/31 09:59:47;;;;;;;13.33;6.13;;;19.20;99.90;;;;;;7242916;80;26340;-60
2022/10/31 10:09:50;;;;;;;19.73;7.37;;;18.90;99.90;;;;;;7232971;80;26328;-59
2022/10/31 10:20:07;;;;;;;25.37;5.90;;;19.00;99.90;;;;;;7248631;80;26387;-59
2022/10/31 10:30:15;;;;;;;14.13;5.70;;;19.10;99.90;;;;;;7249150;80;26340;-60
2022/10/31 10:40:24;;;;;;;14.57;5.40;;;18.90;99.90;;;;;;7244187;80;26364;-61
2022/10/31 10:50:35;;;;;;;13.23;5.57;;;18.80;99.90;;;;;;7250297;80;26344;-60
2022/10/31 11:00:41;;;;;;;9.47;5.47;;;19.00;99.90;;;;;;7247488;80;27173;-63
2022/10/31 11:10:43;;;;;;;18.30;5.40;;;19.10;99.90;;;;;;7242066;80;26399;-60
2022/10/31 11:20:49;;;;;;;15.17;5.07;;;18.90;99.90;;;;;;7250203;80;26990;-60
2022/10/31 11:30:55;;;;;;;10.80;5.10;;;19.00;99.90;;;;;;7244378;80;26415;-60
2022/10/31 11:41:00;;;;;;;14.17;5.50;;;18.90;99.90;;;;;;7229989;80;27113;-61
2022/10/31 11:51:04;;;;;;;12.67;5.23;;;19.00;99.90;;;;;;7244061;80;26300;-59
2022/10/31 12:01:09;;;;;;;9.43;3.97;;;19.10;99.90;;;;;;7250196;80;26412;-60
2022/10/31 12:11:32;;;;;;;14.33;4.87;;;19.10;99.90;;;;;;7229537;80;27289;-59
2022/10/31 12:21:53;;;;;;;17.67;5.13;;;19.10;99.90;;;;;;7239941;80;26372;-59
2022/10/31 12:32:01;;;;;;;10.30;5.23;;;19.10;99.90;;;;;;7246398;80;26339;-61
2022/10/31 12:42:29;;;;;;;13.73;5.17;;;19.10;99.90;;;;;;7229652;80;26348;-60
2022/10/31 12:52:37;;;;;;;8.60;4.60;;;19.20;99.90;;;;;;7229139;80;27252;-59
2022/10/31 13:02:55;;;;;;;9.30;4.50;;;19.30;99.90;;;;;;7215144;80;27075;-60
2022/10/31 13:13:00;;;;;;;10.93;4.73;;;19.10;99.90;;;;;;7239095;80;26403;-58
2022/10/31 13:23:28;;;;;;;9.97;4.17;;;19.20;99.90;;;;;;7244242;80;26340;-59
2022/10/31 13:33:40;;;;;;;6.20;3.80;;;19.10;99.90;;;;;;7227579;80;26313;-60
2022/10/31 13:43:51;;;;;;;12.17;4.63;;;19.00;99.90;;;;;;7233523;80;26356;-59
2022/10/31 13:53:57;;;;;;;8.97;4.83;;;19.00;99.90;;;;;;7226043;80;26441;-60
2022/10/31 14:04:05;;;;;;;8.53;4.57;;;19.10;99.90;;;;;;7217623;80;26344;-59
2022/10/31 14:14:11;;;;;;;10.30;5.00;;;19.20;99.90;;;;;;7230160;80;26786;-61
2022/10/31 14:24:26;;;;;;;12.43;4.87;;;19.20;99.90;;;;;;7233796;80;26378;-61
2022/10/31 14:34:37;;;;;;;13.30;5.20;;;19.10;99.90;;;;;;7226533;80;26618;-59
2022/10/31 14:45:02;;;;;;;12.50;5.13;;;19.10;99.90;;;;;;7211745;81;26363;-58
2022/10/31 14:55:08;;;;;;;11.53;5.23;;;19.10;99.90;;;;;;7240024;81;26337;-60
2022/10/31 15:05:12;;;;;;;11.07;5.20;;;19.10;99.90;;;;;;7236290;81;26347;-60
2022/10/31 15:15:17;;;;;;;9.40;4.80;;;19.10;99.90;;;;;;7243427;80;26407;-59
2022/10/31 15:25:22;;;;;;;11.83;4.80;;;19.10;99.90;;;;;;7247014;80;26492;-60
2022/10/31 15:35:30;;;;;;;14.77;5.07;;;19.10;99.90;;;;;;7239236;80;26328;-60
2022/10/31 15:45:33;;;;;;;9.50;5.13;;;19.10;99.90;;;;;;7232417;80;26399;-60
2022/10/31 15:55:38;;;;;;;11.53;4.67;;;19.00;99.90;;;;;;7243190;80;26325;-59
2022/10/31 16:05:46;;;;;;;8.47;4.70;;;19.10;99.90;;;;;;7241210;80;26352;-59
2022/10/31 16:15:51;;;;;;;12.77;4.90;;;19.10;99.90;;;;;;7222464;80;26308;-59
2022/10/31 16:25:53;;;;;;;11.07;4.30;;;18.90;99.90;;;;;;7142185;82;26885;-58
2022/10/31 16:35:57;;;;;;;13.50;5.20;;;18.80;99.90;;;;;;7251255;80;26794;-60
2022/10/31 16:46:00;;;;;;;12.93;4.27;;;18.90;99.90;;;;;;7249101;80;26348;-60
2022/10/31 16:56:04;;;;;;;12.63;4.27;;;18.90;99.90;;;;;;7254702;80;26301;-58
2022/10/31 17:06:08;;;;;;;10.67;5.23;;;18.90;99.90;;;;;;7248989;80;26408;-61
2022/10/31 17:16:14;;;;;;;13.43;4.53;;;18.90;99.90;;;;;;7229086;80;26860;-59
2022/10/31 17:26:16;;;;;;;10.37;4.90;;;18.90;99.90;;;;;;7221045;80;26809;-61
2022/10/31 17:36:19;;;;;;;9.00;4.93;;;18.90;99.90;;;;;;7250639;80;26371;-58
2022/10/31 17:46:21;;;;;;;14.63;5.10;;;18.80;99.90;;;;;;7183573;82;26407;-58
2022/10/31 17:56:24;;;;;;;11.73;4.43;;;18.50;99.90;;;;;;7166069;82;26305;-58
2022/10/31 18:06:27;;;;;;;13.80;5.50;;;18.70;99.90;;;;;;7251880;80;26328;-60
2022/10/31 18:16:29;;;;;;;9.67;5.13;;;18.50;99.90;;;;;;7252390;80;26760;-61
2022/10/31 18:26:32;;;;;;;41.40;18.83;;;18.70;99.90;;;;;;7222481;80;26343;-60
2022/10/31 18:36:34;;;;;;;33.50;13.77;;;18.60;99.90;;;;;;7225049;80;26818;-58
2022/10/31 18:46:37;;;;;;;35.67;12.67;;;18.40;99.90;;;;;;7214342;80;26343;-59
2022/10/31 18:56:40;;;;;;;42.47;15.07;;;18.50;99.90;;;;;;7215010;80;26363;-60
2022/10/31 19:06:42;;;;;;;26.90;14.00;;;18.30;99.90;;;;;;7260066;80;27111;-62
2022/10/31 19:16:45;;;;;;;30.23;12.90;;;18.40;99.90;;;;;;7239824;80;26324;-58
2022/10/31 19:26:48;;;;;;;30.90;13.83;;;17.80;99.90;;;;;;7234750;80;26348;-61
2022/10/31 19:36:50;;;;;;;33.63;16.27;;;18.00;99.90;;;;;;7246507;80;26711;-61
2022/10/31 19:46:53;;;;;;;21.07;11.80;;;18.20;99.90;;;;;;7240421;80;26411;-61
2022/10/31 19:56:55;;;;;;;16.60;10.23;;;18.00;99.90;;;;;;7246707;80;27037;-60
2022/10/31 20:06:58;;;;;;;18.00;10.83;;;17.80;99.90;;;;;;7240042;80;26365;-61
2022/10/31 20:17:00;;;;;;;31.57;8.87;;;18.00;99.90;;;;;;7130780;82;26392;-61
2022/10/31 20:27:04;;;;;;;20.60;10.83;;;17.90;99.90;;;;;;7240223;80;26425;-59
2022/10/31 20:37:06;;;;;;;22.50;10.47;;;18.00;99.90;;;;;;7230582;80;26363;-61
2022/10/31 20:47:09;;;;;;;25.43;10.87;;;18.00;99.90;;;;;;7131633;82;26946;-60
2022/10/31 20:57:12;;;;;;;16.40;9.23;;;18.10;99.90;;;;;;7220382;80;26324;-59
2022/10/31 21:07:14;;;;;;;40.03;11.63;;;18.10;99.90;;;;;;7241954;80;26418;-58
2022/10/31 21:17:17;;;;;;;14.97;9.13;;;18.10;99.90;;;;;;7221217;80;26309;-60
2022/10/31 21:27:19;;;;;;;14.50;9.30;;;18.10;99.90;;;;;;7218237;80;26425;-60
2022/10/31 21:37:22;;;;;;;18.50;8.43;;;18.10;99.90;;;;;;7230213;80;26368;-60
2022/10/31 21:47:24;;;;;;;15.63;8.30;;;18.00;99.90;;;;;;7223440;80;27456;-59
2022/10/31 21:57:27;;;;;;;16.93;8.10;;;18.00;99.90;;;;;;7235674;80;26630;-58
2022/10/31 22:07:31;;;;;;;19.43;9.57;;;18.00;99.90;;;;;;7211065;80;26434;-59
2022/10/31 22:17:33;;;;;;;21.60;8.03;;;18.00;99.90;;;;;;7227466;81;27452;-59
2022/10/31 22:27:37;;;;;;;19.83;8.57;;;18.00;99.90;;;;;;7242570;80;26380;-59
2022/10/31 22:37:40;;;;;;;19.70;7.50;;;17.90;99.90;;;;;;7244110;80;26501;-59
2022/10/31 22:47:42;;;;;;;14.67;7.27;;;17.90;99.90;;;;;;7198521;80;26420;-59
2022/10/31 22:57:45;;;;;;;19.47;7.33;;;18.00;99.90;;;;;;7228131;80;26400;-58
2022/10/31 23:07:47;;;;;;;13.20;7.57;;;18.00;99.90;;;;;;7246115;80;26438;-60
2022/10/31 23:17:50;;;;;;;18.13;7.37;;;18.00;99.90;;;;;;7247412;80;26422;-60
2022/10/31 23:27:52;;;;;;;16.87;7.00;;;17.80;99.90;;;;;;7247843;79;26442;-60
2022/10/31 23:37:55;;;;;;;15.13;6.27;;;18.00;99.90;;;;;;7257590;80;26348;-60
2022/10/31 23:47:57;;;;;;;15.03;5.97;;;18.00;99.90;;;;;;7236485;80;26867;-60
2022/10/31 23:58:00;;;;;;;14.47;5.97;;;18.00;99.90;;;;;;7222991;80;26487;-61
